Latest Weather Observations for Gatton

IDQ60801

Issued at 1:32 pm EST Sunday 4 December 2016 (issued every 30 minutes, with the page automatically refreshed every 10 minutes)

About weather observations | Map of weather stations | Latest weather observations for QLD | Other Formats
Station Details ID: 040082 Name: UNIVERSITY OF QUEENSLAND GATTON Lat: -27.54 Lon: 152.34 Height: 89.0 m
Data from the previous 72 hours. | See also: Recent months at Gatton
Date/Time
EST
Temp
°C
App
Temp
°C
Dew
Point
°C
Rel
Hum
%
Delta-T
°C
Wind Press
QNH
hPa
Press
MSL
hPa
Rain since
9am
mm
Dir  Spd
km/h
Gust
km/h
Spd
kts
Gust
kts
04/01:30pm 33.9 34.6 19.6 43 9.5 ENE 15 20 8 11 - - 0.0
04/01:00pm 32.8 34.5 19.3 45 8.9 ENE 9 20 5 11 - - 0.0
04/12:30pm 32.4 34.0 20.0 48 8.2 ENE 11 19 6 10 - - 0.0
04/12:00pm 31.5 34.0 19.8 49 7.7 E 6 13 3 7 - - 0.0
04/11:30am 30.4 32.4 19.1 50 7.4 ENE 7 13 4 7 - - 0.0
04/11:00am 30.0 31.7 19.4 53 6.9 E 9 15 5 8 - - 0.0
04/10:30am 29.2 31.1 19.8 57 6.2 ENE 9 17 5 9 - - 0.0
04/10:00am 27.8 29.3 18.8 58 5.8 ENE 9 13 5 7 - - 0.0
04/09:30am 26.9 27.9 17.7 57 5.8 N 9 13 5 7 - - 0.0
04/09:00am 26.4 28.2 19.5 66 4.5 ENE 9 15 5 8 - - 21.4
04/08:30am 25.7 28.2 20.3 72 3.5 E 7 15 4 8 - - 21.2
04/08:00am 24.3 26.3 18.7 71 3.6 NE 6 13 3 7 - - 21.2
04/07:30am 24.2 26.8 20.1 78 2.7 E 6 9 3 5 - - 21.2
04/07:00am 22.9 26.6 19.9 83 1.9 CALM 0 6 0 3 - - 21.2
04/06:30am 21.6 23.3 19.3 87 1.5 E 9 13 5 7 - - 21.2
04/06:00am 21.0 23.1 19.3 90 1.1 E 7 11 4 6 - - 21.2
04/05:30am 20.0 22.0 18.8 93 0.8 W 6 7 3 4 - - 21.2
04/05:00am 19.3 22.2 18.3 94 0.6 CALM 0 0 0 0 - - 21.2
04/04:30am 19.2 22.0 18.0 93 0.7 CALM 0 0 0 0 - - 21.2
04/04:00am 19.6 22.3 18.6 94 0.6 W 2 7 1 4 - - 21.2
04/03:30am 19.6 22.2 18.4 93 0.7 W 2 7 1 4 - - 21.2
04/03:00am 19.6 22.6 18.4 93 0.7 CALM 0 6 0 3 - - 21.2
04/02:30am 19.9 22.6 18.6 92 0.8 WNW 2 7 1 4 - - 21.2
04/02:00am 20.0 23.0 18.5 91 0.9 CALM 0 0 0 0 - - 21.2
04/01:30am 19.9 22.6 18.6 92 0.8 SW 2 9 1 5 - - 21.2
04/01:00am 20.4 23.5 18.7 90 1.1 CALM 0 4 0 2 - - 21.2
04/12:30am 20.8 23.5 19.5 92 0.8 WNW 4 11 2 6 - - 21.2
04/12:00am 20.7 24.1 19.4 92 0.8 CALM 0 0 0 0 - - 21.2
 
Date/Time
EST
Temp
°C
App
Temp
°C
Dew
Point
°C
Rel
Hum
%
Delta-T
°C
Wind Press
QNH
hPa
Press
MSL
hPa
Rain since
9am
mm
Dir  Spd
km/h
Gust
km/h
Spd
kts
Gust
kts
03/11:30pm 21.1 24.5 19.4 90 1.1 CALM 0 0 0 0 - - 21.2
03/11:00pm 21.6 25.3 19.9 90 1.1 CALM 0 0 0 0 - - 21.2
03/10:30pm 21.6 25.4 20.1 91 1.0 CALM 0 0 0 0 - - 21.2
03/10:00pm 21.6 25.3 19.9 90 1.1 CALM 0 0 0 0 - - 21.2
03/09:30pm 21.7 25.3 19.8 89 1.2 CALM 0 0 0 0 - - 21.2
03/09:00pm 21.7 24.1 19.6 88 1.3 E 6 13 3 7 - - 21.2
03/08:30pm 21.6 24.0 19.7 89 1.2 SSE 6 13 3 7 - - 21.2
03/08:00pm 21.4 24.2 19.7 90 1.1 N 4 9 2 5 - - 21.2
03/07:30pm 21.5 23.7 19.6 89 1.2 E 7 11 4 6 - - 21.2
03/07:00pm 21.3 22.7 19.6 90 1.1 E 11 15 6 8 - - 21.2
03/06:30pm 21.1 21.1 19.7 92 0.9 SE 19 28 10 15 - - 21.2
03/06:00pm 20.3 19.5 19.3 94 0.6 ESE 22 28 12 15 - - 20.6
03/05:42pm 20.5 19.6 19.0 91 0.9 S 22 61 12 33 - - 11.4
03/05:31pm 22.9 16.8 18.4 76 2.8 SW 48 89 26 48 - - 0.0
03/05:30pm 23.5 18.3 18.4 73 3.2 SW 43 69 23 37 - - 0.0
03/05:29pm 24.0 18.8 18.4 71 3.5 SSW 43 69 23 37 - - 0.0
03/05:15pm 23.1 18.3 18.4 75 3.0 S 41 69 22 37 - - 0.0
03/05:13pm 22.9 19.7 18.7 77 2.7 S 33 57 18 31 - - 0.0
03/05:00pm 24.8 19.4 18.3 67 4.1 SE 44 69 24 37 - - 0.0
03/04:41pm 28.5 19.9 15.1 44 8.2 SE 54 72 29 39 - - 0.0
03/04:39pm 34.3 32.3 19.1 40 10.0 E 28 61 15 33 - - 0.0
03/04:30pm 35.9 34.8 21.0 42 10.1 E 28 39 15 21 - - 0.0
03/04:00pm 36.5 34.6 19.4 36 11.4 ENE 28 39 15 21 - - 0.0
03/03:30pm 38.8 37.7 18.6 30 13.4 ENE 22 37 12 20 - - 0.0
03/03:00pm 38.4 37.3 17.2 28 13.8 NE 19 33 10 18 - - 0.0
03/02:30pm 38.3 36.8 17.7 30 13.5 E 22 35 12 19 - - 0.0
03/02:00pm 38.0 36.8 17.4 29 13.4 E 20 28 11 15 - - 0.0
03/01:30pm 37.3 36.4 17.8 31 12.7 E 19 32 10 17 - - 0.0
03/01:00pm 36.9 36.9 18.9 34 11.9 NE 17 22 9 12 - - 0.0
03/12:30pm 35.6 35.7 19.1 38 10.9 ENE 17 28 9 15 - - 0.0
03/12:00pm 34.4 35.2 20.7 44 9.2 ENE 17 26 9 14 - - 0.0
03/11:30am 33.8 34.5 21.2 47 8.5 ENE 19 26 10 14 - - 0.0
03/11:00am 32.8 34.5 21.6 51 7.6 E 15 24 8 13 - - 0.0
03/10:30am 31.4 33.1 21.0 54 7.0 E 13 24 7 13 - - 0.0
03/10:00am 30.7 32.5 21.2 57 6.4 E 13 24 7 13 - - 0.0
03/09:30am 29.9 32.0 21.0 59 6.0 ENE 11 19 6 10 - - 0.0
03/09:00am 29.1 31.5 20.8 61 5.5 ENE 9 22 5 12 - - 0.0
03/08:30am 28.1 30.4 21.4 67 4.5 ENE 11 15 6 8 - - 0.0
03/08:00am 26.4 29.3 21.8 76 3.1 NE 9 13 5 7 - - 0.0
03/07:30am 25.9 29.5 22.0 79 2.6 SE 6 9 3 5 - - 0.0
03/07:00am 25.3 29.2 21.8 81 2.3 SE 4 9 2 5 - - 0.0
03/06:30am 24.9 27.8 21.8 83 2.1 SE 9 13 5 7 - - 0.0
03/06:00am 24.6 28.1 21.9 85 1.8 SSE 6 9 3 5 - - 0.0
03/05:30am 24.2 28.0 21.7 86 1.7 ESE 4 7 2 4 - - 0.0
03/05:00am 24.1 28.6 21.6 86 1.7 CALM 0 6 0 3 - - 0.0
03/04:30am 24.2 28.7 21.5 85 1.8 CALM 0 6 0 3 - - 0.0
03/04:00am 24.2 28.6 21.3 84 1.9 CALM 0 0 0 0 - - 0.0
03/03:30am 24.2 28.6 21.3 84 1.9 CALM 0 0 0 0 - - 0.0
03/03:00am 24.0 28.4 21.3 85 1.8 CALM 0 0 0 0 - - 0.0
03/02:30am 23.9 28.4 21.6 87 1.5 CALM 0 0 0 0 - - 0.0
03/02:00am 23.7 28.1 21.4 87 1.5 CALM 0 0 0 0 - - 0.0
03/01:30am 23.6 27.0 21.7 89 1.3 SE 6 9 3 5 - - 0.0
03/01:00am 22.8 26.3 21.1 90 1.1 SE 4 7 2 4 - - 0.0
03/12:30am 23.0 26.4 20.9 88 1.4 SE 4 9 2 5 - - 0.0
03/12:00am 23.0 27.0 20.5 86 1.6 CALM 0 0 0 0 - - 0.0
 
Date/Time
EST
Temp
°C
App
Temp
°C
Dew
Point
°C
Rel
Hum
%
Delta-T
°C
Wind Press
QNH
hPa
Press
MSL
hPa
Rain since
9am
mm
Dir  Spd
km/h
Gust
km/h
Spd
kts
Gust
kts
02/11:30pm 23.6 27.4 20.9 85 1.8 SE 2 7 1 4 - - 0.0
02/11:00pm 23.9 27.6 20.8 83 2.0 ESE 2 7 1 4 - - 0.0
02/10:30pm 24.4 26.9 21.1 82 2.2 ESE 9 13 5 7 - - 0.0
02/10:00pm 24.9 26.7 21.2 80 2.4 ESE 13 20 7 11 - - 0.0
02/09:30pm 25.1 28.0 21.0 78 2.7 ESE 7 13 4 7 - - 0.0
02/09:00pm 25.7 27.9 21.1 76 3.0 SE 11 17 6 9 - - 0.0
02/08:30pm 26.4 27.7 20.9 72 3.6 SSE 15 20 8 11 - - 0.0
02/08:00pm 27.2 28.6 21.0 69 4.1 SSE 15 22 8 12 - - 0.0
02/07:30pm 28.0 29.4 21.1 66 4.6 SE 15 26 8 14 - - 0.0
02/07:00pm 28.9 29.8 20.9 62 5.3 SSE 17 24 9 13 - - 0.0
02/06:30pm 30.7 32.4 20.9 56 6.6 SE 13 19 7 10 - - 0.0
02/06:00pm 32.7 33.9 20.6 49 8.1 SE 15 22 8 12 - - 0.0
02/05:30pm 34.8 34.6 18.4 38 10.7 ESE 17 26 9 14 - - 0.0
02/05:00pm 38.1 37.1 13.3 22 15.3 NE 11 19 6 10 - - 0.0
02/04:30pm 38.4 37.2 12.9 22 15.6 ENE 11 13 6 7 - - 0.0
02/04:00pm 38.0 37.5 12.6 22 15.5 E 7 15 4 8 - - 0.0
02/03:30pm 37.9 36.9 14.5 25 14.7 NE 13 20 7 11 - - 0.0
02/03:00pm 37.6 36.7 14.8 25 14.3 E 13 20 7 11 - - 0.0
02/02:30pm 36.9 35.8 14.2 25 14.1 E 13 19 7 10 - - 0.0
02/02:00pm 36.7 36.9 15.8 29 13.3 ENE 9 19 5 10 - - 0.0
02/01:30pm 36.1 35.8 17.3 33 12.2 ENE 15 24 8 13 - - 0.0
02/01:00pm 34.6 35.6 17.8 37 10.9 ENE 9 20 5 11 - - 0.0
02/12:30pm 33.3 35.2 19.0 42 9.4 NE 7 20 4 11 - - 0.0
02/12:00pm 33.0 35.8 20.5 47 8.4 E 6 15 3 8 - - 0.0
02/11:30am 31.7 33.2 19.7 49 7.9 NNE 11 17 6 9 - - 0.0
02/11:00am 30.0 31.7 18.4 49 7.5 ENE 7 15 4 8 - - 0.0
02/10:30am 29.5 31.8 19.8 56 6.4 ENE 7 15 4 8 - - 0.0
02/10:00am 28.3 30.3 19.2 57 5.9 E 7 11 4 6 - - 0.0
02/09:30am 27.1 29.5 18.9 61 5.3 NNW 4 11 2 6 - - 0.0
02/09:00am 25.9 28.0 18.1 62 4.9 SSW 4 9 2 5 - - 1.8
02/08:30am 25.0 27.4 18.0 65 4.4 NE 2 9 1 5 - - 1.8
02/08:00am 23.9 26.7 18.8 73 3.2 NW 2 7 1 4 - - 1.8
02/07:30am 22.7 25.3 18.3 76 2.8 N 2 7 1 4 - - 1.8
02/07:00am 21.7 24.9 18.9 84 1.8 CALM 0 4 0 2 - - 1.8
02/06:30am 20.1 23.1 18.4 90 1.1 CALM 0 0 0 0 - - 1.8
02/06:00am 19.1 22.2 18.6 97 0.3 CALM 0 0 0 0 - - 1.8
02/05:30am 18.5 21.3 18.0 97 0.3 CALM 0 0 0 0 - - 1.8
02/05:00am 17.3 19.6 16.7 96 0.4 CALM 0 0 0 0 - - 1.6
02/04:30am 17.4 19.6 16.4 94 0.6 CALM 0 0 0 0 - - 1.6
02/04:00am 17.8 20.2 17.0 95 0.5 CALM 0 0 0 0 - - 1.6
02/03:30am 17.8 20.1 16.8 94 0.6 CALM 0 0 0 0 - - 1.6
02/03:00am 18.4 21.0 17.4 94 0.6 CALM 0 6 0 3 - - 1.6
02/02:30am 18.7 21.5 17.9 95 0.5 CALM 0 0 0 0 - - 1.6
02/02:00am 18.7 21.3 17.4 92 0.8 CALM 0 0 0 0 - - 1.6
02/01:30am 19.4 21.4 17.9 91 0.9 SSE 4 9 2 5 - - 1.6
02/01:00am 19.5 21.1 18.3 93 0.7 ESE 7 11 4 6 - - 1.6
02/12:30am 19.6 22.6 18.4 93 0.7 CALM 0 0 0 0 - - 1.6
02/12:00am 19.8 22.8 18.5 92 0.8 CALM 0 0 0 0 - - 1.6
 
Date/Time
EST
Temp
°C
App
Temp
°C
Dew
Point
°C
Rel
Hum
%
Delta-T
°C
Wind Press
QNH
hPa
Press
MSL
hPa
Rain since
9am
mm
Dir  Spd
km/h
Gust
km/h
Spd
kts
Gust
kts
01/11:30pm 20.5 23.8 19.0 91 0.9 CALM 0 0 0 0 - - 1.6
01/11:00pm 20.8 23.6 18.9 89 1.2 SE 2 9 1 5 - - 1.6
01/10:30pm 21.3 24.7 19.4 89 1.2 CALM 0 0 0 0 - - 1.6
01/10:00pm 21.5 24.2 19.4 88 1.3 SE 4 7 2 4 - - 1.6
01/09:30pm 21.7 24.0 19.4 87 1.5 ESE 6 9 3 5 - - 1.6
01/09:00pm 22.2 24.6 19.6 85 1.7 ESE 6 9 3 5 - - 1.6
01/08:30pm 22.4 25.9 19.6 84 1.8 CALM 0 4 0 2 - - 1.6
01/08:00pm 22.5 25.6 19.5 83 1.9 E 2 9 1 5 - - 1.6
01/07:30pm 22.6 24.5 19.0 80 2.3 E 7 9 4 5 - - 1.6
01/07:00pm 22.6 24.2 17.9 75 2.9 E 6 11 3 6 - - 1.6
01/06:30pm 23.4 24.2 17.2 68 3.8 ENE 9 15 5 8 - - 1.6
01/06:00pm 24.2 24.0 17.7 67 4.1 NE 15 20 8 11 - - 1.6
01/05:30pm 24.8 23.6 17.0 62 4.8 NE 19 26 10 14 - - 1.6
01/05:00pm 26.5 27.4 20.1 68 4.2 ENE 15 26 8 14 - - 1.6
01/04:30pm 26.7 25.0 19.8 66 4.5 E 28 35 15 19 - - 1.6
01/04:00pm 29.6 28.0 17.4 47 7.7 NE 22 32 12 17 - - 0.0
01/03:43pm 31.3 26.0 13.1 33 10.9 ENE 33 43 18 23 - - 0.0
01/03:30pm 34.0 34.1 14.5 31 12.1 ENE 7 11 4 6 - - 0.0
01/03:00pm 34.6 34.7 14.5 30 12.4 ENE 7 19 4 10 - - 0.0
01/02:30pm 35.6 35.6 15.3 29 12.8 E 9 22 5 12 - - 0.0
01/02:00pm 34.7 35.4 15.6 32 12.0 S 6 13 3 7 - - 0.0

Other Formats:

Comma delimited format used in spreadsheet applications
http://www.bom.gov.au/fwo/IDQ60801/IDQ60801.94562.axf

JavaScript Object Notation format (JSON) in row-major order
http://www.bom.gov.au/fwo/IDQ60801/IDQ60801.94562.json